createdAt,value
2018-09-18T00:00:46.006Z,20.66
2018-09-18T00:01:46.016Z,20.66
2018-09-18T00:02:46.272Z,20.65
2018-09-18T00:03:46.224Z,20.64
2018-09-18T00:04:46.032Z,20.66
2018-09-18T00:05:46.263Z,20.66
2018-09-18T00:06:46.284Z,20.65
2018-09-18T00:07:46.127Z,20.66
2018-09-18T00:08:46.098Z,20.66
2018-09-18T00:09:46.257Z,20.64
2018-09-18T00:10:47.304Z,20.66
2018-09-18T00:11:46.081Z,20.64
2018-09-18T00:12:46.006Z,20.63
2018-09-18T00:13:46.047Z,20.66
2018-09-18T00:14:46.079Z,20.65
2018-09-18T00:15:46.517Z,20.66
2018-09-18T00:16:46.439Z,20.66
2018-09-18T00:17:46.145Z,20.63
2018-09-18T00:18:46.052Z,20.65
2018-09-18T00:19:45.970Z,20.65
2018-09-18T00:20:46.632Z,20.66
2018-09-18T00:21:46.433Z,20.65
2018-09-18T00:22:46.177Z,20.65
2018-09-18T00:23:46.151Z,20.65
2018-09-18T00:24:46.038Z,20.65
2018-09-18T00:25:46.098Z,20.63
2018-09-18T00:26:46.207Z,20.65
2018-09-18T00:27:46.128Z,20.66
2018-09-18T00:28:46.103Z,20.66
2018-09-18T00:29:46.324Z,20.65
2018-09-18T00:30:46.688Z,20.68
2018-09-18T00:31:46.084Z,20.65
2018-09-18T00:32:46.240Z,20.63
2018-09-18T00:33:45.995Z,20.65
2018-09-18T00:34:46.345Z,20.66
2018-09-18T00:35:46.001Z,20.64
2018-09-18T00:36:46.049Z,20.66
2018-09-18T00:37:46.164Z,20.65
2018-09-18T00:38:46.196Z,20.66
2018-09-18T00:39:46.964Z,20.64
2018-09-18T00:40:46.203Z,20.64
2018-09-18T00:41:46.104Z,20.66
2018-09-18T00:42:46.156Z,20.68
2018-09-18T00:43:46.806Z,20.66
2018-09-18T00:44:46.110Z,20.65
2018-09-18T00:45:46.012Z,20.64
2018-09-18T00:46:46.196Z,20.66
2018-09-18T00:47:46.932Z,20.65
2018-09-18T00:48:46.115Z,20.64
2018-09-18T00:49:46.570Z,20.65
2018-09-18T00:50:46.422Z,20.68
2018-09-18T00:51:46.373Z,20.66
2018-09-18T00:52:46.226Z,20.65
2018-09-18T00:53:46.144Z,20.66
2018-09-18T00:54:46.679Z,20.68
2018-09-18T00:55:46.866Z,20.66
2018-09-18T00:56:46.003Z,20.66
2018-09-18T00:57:46.175Z,20.66
2018-09-18T00:58:46.245Z,20.64
2018-09-18T00:59:46.021Z,20.68
2018-09-18T01:00:46.360Z,20.65
2018-09-18T01:01:46.235Z,20.64
2018-09-18T01:02:46.165Z,20.66
2018-09-18T01:03:45.991Z,20.65
2018-09-18T01:04:46.218Z,20.65
2018-09-18T01:05:45.931Z,20.66
2018-09-18T01:06:46.184Z,20.65
2018-09-18T01:07:46.533Z,20.65
2018-09-18T01:08:46.118Z,20.66
2018-09-18T01:09:46.041Z,20.64
2018-09-18T01:10:46.183Z,20.65
2018-09-18T01:11:46.057Z,20.66
2018-09-18T01:12:46.130Z,20.65
2018-09-18T01:13:46.310Z,20.66
2018-09-18T01:14:46.452Z,20.66
2018-09-18T01:15:46.157Z,20.63
2018-09-18T01:16:46.215Z,20.64
2018-09-18T01:17:46.103Z,20.66
2018-09-18T01:18:46.046Z,20.65
2018-09-18T01:19:46.069Z,20.66
2018-09-18T01:20:46.258Z,20.66
2018-09-18T01:21:46.116Z,20.63
2018-09-18T01:22:46.138Z,20.64
2018-09-18T01:23:45.973Z,20.65
2018-09-18T01:24:45.929Z,20.63
2018-09-18T01:25:46.008Z,20.66
2018-09-18T01:26:46.110Z,20.64
2018-09-18T01:27:46.191Z,20.66
2018-09-18T01:28:46.206Z,20.64
2018-09-18T01:29:46.109Z,20.64
2018-09-18T01:30:46.181Z,20.64
2018-09-18T01:31:46.255Z,20.64
2018-09-18T01:32:46.138Z,20.66
2018-09-18T01:33:45.991Z,20.66
2018-09-18T01:34:46.484Z,20.66
2018-09-18T01:35:46.099Z,20.63
2018-09-18T01:36:46.130Z,20.65
2018-09-18T01:37:46.015Z,20.66
2018-09-18T01:38:45.906Z,20.65
2018-09-18T01:39:46.262Z,20.66
2018-09-18T01:40:46.842Z,20.64
2018-09-18T01:41:46.263Z,20.63
2018-09-18T01:42:46.044Z,20.64
2018-09-18T01:43:47.088Z,20.65
2018-09-18T01:44:46.102Z,20.66
2018-09-18T01:45:46.043Z,20.63
2018-09-18T01:46:46.022Z,20.64
2018-09-18T01:47:46.129Z,20.65
2018-09-18T01:48:46.083Z,20.64
2018-09-18T01:49:46.091Z,20.64
2018-09-18T01:50:45.949Z,20.64
2018-09-18T01:51:46.161Z,20.65
2018-09-18T01:52:46.159Z,20.65
2018-09-18T01:53:46.303Z,20.65
2018-09-18T01:54:45.892Z,20.63
2018-09-18T01:55:46.004Z,20.65
2018-09-18T01:56:46.195Z,20.66
2018-09-18T01:57:46.275Z,20.65
2018-09-18T01:58:46.335Z,20.63
2018-09-18T01:59:46.469Z,20.63
2018-09-18T02:00:45.927Z,20.61
2018-09-18T02:01:46.140Z,20.65
2018-09-18T02:02:46.119Z,20.63
2018-09-18T02:03:45.906Z,20.64
2018-09-18T02:04:46.015Z,20.64
2018-09-18T02:05:46.061Z,20.63
2018-09-18T02:06:45.949Z,20.65
2018-09-18T02:07:46.056Z,20.65
2018-09-18T02:08:46.223Z,20.65
2018-09-18T02:09:46.097Z,20.62
2018-09-18T02:10:46.202Z,20.63
2018-09-18T02:11:46.019Z,20.65
2018-09-18T02:12:46.139Z,20.64
2018-09-18T02:13:46.163Z,20.65
2018-09-18T02:14:45.998Z,20.63
2018-09-18T02:15:45.921Z,20.65
2018-09-18T02:16:46.045Z,20.63
2018-09-18T02:17:46.135Z,20.63
2018-09-18T02:18:45.981Z,20.64
2018-09-18T02:19:46.396Z,20.64
2018-09-18T02:20:46.177Z,20.66
2018-09-18T02:21:46.066Z,20.66
2018-09-18T02:22:46.123Z,20.65
2018-09-18T02:23:46.160Z,20.65
2018-09-18T02:24:46.409Z,20.65
2018-09-18T02:25:46.116Z,20.65
2018-09-18T02:26:46.302Z,20.63
2018-09-18T02:27:46.120Z,20.63
2018-09-18T02:28:45.864Z,20.63
2018-09-18T02:29:45.889Z,20.64
2018-09-18T02:30:46.045Z,20.63
2018-09-18T02:31:45.853Z,20.64
2018-09-18T02:32:45.954Z,20.62
2018-09-18T02:33:45.970Z,20.65
2018-09-18T02:34:46.108Z,20.65
2018-09-18T02:35:46.038Z,20.66
2018-09-18T02:36:46.068Z,20.65
2018-09-18T02:37:46.033Z,20.63
2018-09-18T02:38:46.105Z,20.64
2018-09-18T02:39:46.135Z,20.63
2018-09-18T02:40:46.115Z,20.65
2018-09-18T02:41:46.033Z,20.64
2018-09-18T02:42:46.212Z,20.63
2018-09-18T02:43:45.827Z,20.64
2018-09-18T02:44:46.107Z,20.63
2018-09-18T02:45:45.961Z,20.63
2018-09-18T02:46:46.013Z,20.65
2018-09-18T02:47:46.048Z,20.65
2018-09-18T02:48:46.028Z,20.64
2018-09-18T02:49:46.435Z,20.63
2018-09-18T02:50:46.206Z,20.62
2018-09-18T02:51:46.142Z,20.63
2018-09-18T02:52:46.023Z,20.63
2018-09-18T02:53:45.979Z,20.65
2018-09-18T02:54:46.244Z,20.65
2018-09-18T02:55:45.930Z,20.62
2018-09-18T02:56:46.147Z,20.65
2018-09-18T02:57:46.011Z,20.63
2018-09-18T02:58:45.920Z,20.65
2018-09-18T02:59:46.137Z,20.63
2018-09-18T03:00:46.085Z,20.62
2018-09-18T03:01:45.916Z,20.65
2018-09-18T03:02:46.008Z,20.63
2018-09-18T03:03:46.086Z,20.63
2018-09-18T03:04:46.133Z,20.65
2018-09-18T03:05:45.849Z,20.63
2018-09-18T03:06:46.665Z,20.65
2018-09-18T03:07:45.971Z,20.63
2018-09-18T03:08:45.935Z,20.65
2018-09-18T03:09:46.054Z,20.65
2018-09-18T03:10:46.073Z,20.66
2018-09-18T03:11:45.985Z,20.61
2018-09-18T03:12:46.047Z,20.64
2018-09-18T03:13:45.929Z,20.63
2018-09-18T03:14:46.109Z,20.63
2018-09-18T03:15:46.032Z,20.63
2018-09-18T03:16:45.978Z,20.64
2018-09-18T03:17:46.091Z,20.63
2018-09-18T03:18:46.185Z,20.63
2018-09-18T03:19:46.032Z,20.63
2018-09-18T03:20:46.157Z,20.62
2018-09-18T03:21:46.090Z,20.63
2018-09-18T03:22:46.163Z,20.63
2018-09-18T03:23:45.980Z,20.64
2018-09-18T03:24:46.110Z,20.63
2018-09-18T03:25:45.951Z,20.64
2018-09-18T03:26:46.058Z,20.63
2018-09-18T03:27:46.084Z,20.64
2018-09-18T03:28:45.997Z,20.64
2018-09-18T03:29:46.630Z,20.64
2018-09-18T03:30:45.873Z,20.63
2018-09-18T03:31:45.932Z,20.63
2018-09-18T03:32:46.553Z,20.64
2018-09-18T03:33:46.021Z,20.64
2018-09-18T03:34:46.063Z,20.63
2018-09-18T03:35:46.853Z,20.63
2018-09-18T03:36:45.977Z,20.64
2018-09-18T03:37:46.064Z,20.63
2018-09-18T03:38:45.984Z,20.63
2018-09-18T03:39:45.954Z,20.63
2018-09-18T03:40:45.962Z,20.64
2018-09-18T03:41:46.029Z,20.65
2018-09-18T03:42:45.843Z,20.64
2018-09-18T03:43:46.468Z,20.64
2018-09-18T03:44:46.259Z,20.63
2018-09-18T03:45:45.904Z,20.63
2018-09-18T03:46:46.007Z,20.63
2018-09-18T03:47:46.030Z,20.61
2018-09-18T03:48:45.971Z,20.64
2018-09-18T03:49:46.103Z,20.62
2018-09-18T03:50:45.977Z,20.62
2018-09-18T03:51:46.133Z,20.64
2018-09-18T03:52:46.319Z,20.64
2018-09-18T03:53:46.202Z,20.62
2018-09-18T03:54:45.960Z,20.63
2018-09-18T03:55:46.256Z,20.65
2018-09-18T03:56:46.026Z,20.62
2018-09-18T03:57:45.886Z,20.64
2018-09-18T03:58:46.109Z,20.63
2018-09-18T03:59:46.074Z,20.61
2018-09-18T04:00:46.134Z,20.61
2018-09-18T04:01:46.337Z,20.65
2018-09-18T04:02:46.512Z,20.65
2018-09-18T04:03:45.969Z,20.63
2018-09-18T04:04:46.068Z,20.64
2018-09-18T04:05:45.917Z,20.63
2018-09-18T04:06:46.035Z,20.63
2018-09-18T04:07:46.093Z,20.64
2018-09-18T04:08:46.112Z,20.64
2018-09-18T04:09:45.917Z,20.63
2018-09-18T04:10:46.436Z,20.63
2018-09-18T04:11:46.071Z,20.64
2018-09-18T04:12:45.950Z,20.64
2018-09-18T04:13:46.165Z,20.63
2018-09-18T04:14:45.977Z,20.61
2018-09-18T04:15:46.139Z,20.62
2018-09-18T04:16:45.982Z,20.62
2018-09-18T04:17:45.975Z,20.63
2018-09-18T04:18:46.160Z,20.64
2018-09-18T04:19:45.893Z,20.65
2018-09-18T04:20:45.885Z,20.63
2018-09-18T04:21:46.208Z,20.64
2018-09-18T04:22:46.036Z,20.64
2018-09-18T04:23:46.107Z,20.63
2018-09-18T04:24:46.132Z,20.62
2018-09-18T04:25:46.312Z,20.62
2018-09-18T04:26:46.393Z,20.63
2018-09-18T04:27:45.887Z,20.62
2018-09-18T04:28:45.898Z,20.63
2018-09-18T04:29:45.990Z,20.63
2018-09-18T04:30:46.093Z,20.63
2018-09-18T04:31:46.206Z,20.61
2018-09-18T04:32:45.995Z,20.62
2018-09-18T04:33:46.101Z,20.63
2018-09-18T04:34:46.105Z,20.62
2018-09-18T04:35:46.391Z,20.64
2018-09-18T04:36:46.035Z,20.63
2018-09-18T04:37:46.214Z,20.63
2018-09-18T04:38:46.103Z,20.63
2018-09-18T04:39:45.973Z,20.63
2018-09-18T04:40:46.065Z,20.63
2018-09-18T04:41:46.506Z,20.63
2018-09-18T04:42:45.990Z,20.64
2018-09-18T04:43:46.238Z,20.63
2018-09-18T04:44:45.929Z,20.63
2018-09-18T04:45:46.379Z,20.62
2018-09-18T04:46:46.363Z,20.63
2018-09-18T04:47:46.077Z,20.64
2018-09-18T04:48:46.217Z,20.62
2018-09-18T04:49:46.037Z,20.62
2018-09-18T04:50:45.869Z,20.61
2018-09-18T04:51:46.143Z,20.63
2018-09-18T04:52:46.005Z,20.63
2018-09-18T04:53:45.935Z,20.63
2018-09-18T04:54:46.424Z,20.62
2018-09-18T04:55:46.144Z,20.62
2018-09-18T04:56:45.921Z,20.63
2018-09-18T04:57:46.104Z,20.64
2018-09-18T04:58:46.063Z,20.62
2018-09-18T04:59:46.313Z,20.62
2018-09-18T05:00:45.843Z,20.62
2018-09-18T05:01:45.969Z,20.63
2018-09-18T05:02:46.094Z,20.61
2018-09-18T05:03:46.116Z,20.64
2018-09-18T05:04:45.995Z,20.62
2018-09-18T05:05:45.889Z,20.63
2018-09-18T05:06:46.059Z,20.63
2018-09-18T05:07:45.932Z,20.62
2018-09-18T05:08:46.137Z,20.64
2018-09-18T05:09:45.923Z,20.63
2018-09-18T05:10:46.031Z,20.63
2018-09-18T05:11:45.981Z,20.61
2018-09-18T05:12:46.197Z,20.63
2018-09-18T05:13:45.944Z,20.64
2018-09-18T05:14:45.965Z,20.63
2018-09-18T05:15:45.890Z,20.63
2018-09-18T05:16:46.142Z,20.63
2018-09-18T05:17:45.965Z,20.62
2018-09-18T05:18:45.976Z,20.62
2018-09-18T05:19:45.851Z,20.63
2018-09-18T05:20:45.889Z,20.63
2018-09-18T05:21:46.003Z,20.62
2018-09-18T05:22:45.905Z,20.63
2018-09-18T05:23:45.984Z,20.63
2018-09-18T05:24:45.853Z,20.63
2018-09-18T05:25:45.831Z,20.62
2018-09-18T05:26:45.912Z,20.63
2018-09-18T05:27:45.962Z,20.63
2018-09-18T05:28:46.016Z,20.63
2018-09-18T05:29:45.869Z,20.64
2018-09-18T05:30:46.117Z,20.63
2018-09-18T05:31:46.083Z,20.64
2018-09-18T05:32:45.891Z,20.64
2018-09-18T05:33:47.318Z,20.64
2018-09-18T05:34:46.250Z,20.64
2018-09-18T05:35:46.152Z,20.66
2018-09-18T05:36:45.949Z,20.68
2018-09-18T05:37:46.147Z,20.68
2018-09-18T05:38:46.025Z,20.69
2018-09-18T05:39:46.026Z,20.73
2018-09-18T05:40:45.907Z,20.75
2018-09-18T05:41:46.049Z,20.73
2018-09-18T05:42:45.885Z,20.73
2018-09-18T05:43:45.873Z,20.76
2018-09-18T05:44:46.609Z,20.75
2018-09-18T05:45:46.230Z,20.78
2018-09-18T05:46:45.975Z,20.78
2018-09-18T05:47:46.008Z,20.79
2018-09-18T05:48:45.988Z,20.79
2018-09-18T05:49:46.025Z,20.79
2018-09-18T05:50:45.849Z,20.81
2018-09-18T05:51:46.080Z,20.79
2018-09-18T05:52:46.278Z,20.85
2018-09-18T05:53:45.940Z,20.81
2018-09-18T05:54:46.397Z,20.81
2018-09-18T05:55:45.807Z,20.85
2018-09-18T05:56:45.971Z,20.84
2018-09-18T05:57:45.981Z,20.86
2018-09-18T05:58:46.459Z,20.88
2018-09-18T05:59:45.995Z,20.85
2018-09-18T06:00:46.210Z,20.86
2018-09-18T06:01:45.925Z,20.87
2018-09-18T06:02:46.133Z,20.9
2018-09-18T06:03:45.847Z,20.88
2018-09-18T06:04:46.579Z,20.87
2018-09-18T06:05:46.178Z,20.88
2018-09-18T06:06:46.089Z,20.87
2018-09-18T06:07:46.010Z,20.88
2018-09-18T06:08:45.989Z,20.87
2018-09-18T06:09:45.932Z,20.88
2018-09-18T06:10:45.879Z,20.88
2018-09-18T06:11:45.877Z,20.88
2018-09-18T06:12:46.219Z,20.89
2018-09-18T06:13:46.066Z,20.89
2018-09-18T06:14:46.081Z,20.89
2018-09-18T06:15:45.997Z,20.89
2018-09-18T06:16:45.854Z,20.87
2018-09-18T06:17:45.920Z,20.91
2018-09-18T06:18:46.854Z,20.91
2018-09-18T06:19:45.976Z,20.92
2018-09-18T06:20:45.974Z,20.92
2018-09-18T06:21:46.891Z,20.92
2018-09-18T06:22:46.227Z,20.93
2018-09-18T06:23:45.962Z,20.94
2018-09-18T06:24:45.811Z,20.94
2018-09-18T06:25:46.078Z,20.93
2018-09-18T06:26:45.880Z,20.92
2018-09-18T06:27:45.968Z,20.94
2018-09-18T06:28:46.079Z,20.95
2018-09-18T06:29:45.899Z,20.95
2018-09-18T06:30:46.211Z,20.96
2018-09-18T06:31:46.022Z,20.98
2018-09-18T06:32:46.841Z,20.98
2018-09-18T06:33:46.166Z,20.98
2018-09-18T06:34:46.264Z,20.99
2018-09-18T06:35:46.045Z,21.01
2018-09-18T06:36:46.213Z,21
2018-09-18T06:37:45.910Z,21
2018-09-18T06:38:45.890Z,21.04
2018-09-18T06:39:46.163Z,21.02
2018-09-18T06:40:46.009Z,21.03
2018-09-18T06:41:45.944Z,21.04
2018-09-18T06:42:45.913Z,21.02
2018-09-18T06:43:45.856Z,21.04
2018-09-18T06:44:45.850Z,21.04
2018-09-18T06:45:45.842Z,21.04
2018-09-18T06:46:45.954Z,21.03
2018-09-18T06:47:45.830Z,21.04
2018-09-18T06:48:46.080Z,21.03
2018-09-18T06:49:46.190Z,21.03
2018-09-18T06:50:46.130Z,21.04
2018-09-18T06:51:46.076Z,21.03
2018-09-18T06:52:46.002Z,21.03
2018-09-18T06:53:46.027Z,21.02
2018-09-18T06:54:46.043Z,21.02
2018-09-18T06:55:46.291Z,21
2018-09-18T06:56:46.054Z,21.01
2018-09-18T06:57:46.226Z,21.04
2018-09-18T06:58:45.984Z,21
2018-09-18T06:59:46.343Z,21
2018-09-18T07:00:45.978Z,21.02
2018-09-18T07:01:45.934Z,21.01
2018-09-18T07:02:45.986Z,21.03
2018-09-18T07:03:46.014Z,21.02
2018-09-18T07:04:46.245Z,21.01
2018-09-18T07:05:46.763Z,21
2018-09-18T07:06:46.423Z,20.98
2018-09-18T07:07:46.016Z,21.01
2018-09-18T07:08:46.093Z,21
2018-09-18T07:09:45.984Z,21
2018-09-18T07:10:46.450Z,21
2018-09-18T07:11:45.854Z,21
2018-09-18T07:12:46.062Z,21.01
2018-09-18T07:13:46.141Z,21
2018-09-18T07:14:45.965Z,20.96
2018-09-18T07:15:45.882Z,21.01
2018-09-18T07:16:45.956Z,21
2018-09-18T07:17:46.246Z,20.99
2018-09-18T07:18:45.904Z,20.99
2018-09-18T07:19:45.945Z,21
2018-09-18T07:20:46.194Z,21
2018-09-18T07:21:46.011Z,20.98
2018-09-18T07:22:45.954Z,20.99
2018-09-18T07:23:46.002Z,20.96
2018-09-18T07:24:46.392Z,20.99
2018-09-18T07:25:45.825Z,20.98
2018-09-18T07:26:45.931Z,20.96
2018-09-18T07:27:46.130Z,20.99
2018-09-18T07:28:45.971Z,20.96
2018-09-18T07:29:45.847Z,20.95
2018-09-18T07:30:46.184Z,21
2018-09-18T07:31:46.000Z,20.96
2018-09-18T07:32:46.973Z,20.96
2018-09-18T07:33:46.645Z,20.95
2018-09-18T07:34:46.078Z,20.96
2018-09-18T07:35:45.866Z,20.96
2018-09-18T07:36:46.022Z,20.96
2018-09-18T07:37:45.873Z,20.94
2018-09-18T07:38:46.075Z,20.95
2018-09-18T07:39:46.078Z,20.94
2018-09-18T07:40:45.947Z,20.94
2018-09-18T07:41:46.354Z,20.93
2018-09-18T07:42:45.956Z,20.92
2018-09-18T07:43:46.025Z,20.92
2018-09-18T07:44:46.040Z,20.94
2018-09-18T07:45:45.959Z,20.93
2018-09-18T07:46:46.071Z,20.93
2018-09-18T07:47:46.101Z,20.93
2018-09-18T07:48:45.967Z,20.92
2018-09-18T07:49:46.201Z,20.93
2018-09-18T07:50:46.628Z,20.92
2018-09-18T07:51:46.143Z,20.92
2018-09-18T07:52:45.771Z,20.93
2018-09-18T07:53:45.972Z,20.92
2018-09-18T07:54:45.945Z,20.91
2018-09-18T07:55:45.942Z,20.92
2018-09-18T07:56:45.874Z,20.93
2018-09-18T07:57:45.948Z,20.92
2018-09-18T07:58:46.056Z,20.9
2018-09-18T07:59:46.041Z,20.91
2018-09-18T08:00:46.168Z,20.9
2018-09-18T08:01:45.994Z,20.91
2018-09-18T08:02:45.907Z,20.88
2018-09-18T08:03:45.902Z,20.9
2018-09-18T08:04:45.988Z,20.91
2018-09-18T08:05:45.883Z,20.89
2018-09-18T08:06:45.955Z,20.89
2018-09-18T08:07:45.981Z,20.89
2018-09-18T08:08:45.944Z,20.88
2018-09-18T08:09:45.939Z,20.9
2018-09-18T08:10:46.356Z,20.9
2018-09-18T08:11:45.861Z,20.87
2018-09-18T08:12:46.011Z,20.88
2018-09-18T08:13:46.055Z,20.88
2018-09-18T08:14:46.095Z,20.88
2018-09-18T08:15:46.040Z,20.89
2018-09-18T08:16:45.993Z,20.89
2018-09-18T08:17:45.829Z,20.88
2018-09-18T08:18:46.797Z,20.88
2018-09-18T08:19:47.879Z,20.88
2018-09-18T08:20:46.003Z,20.87
2018-09-18T08:21:45.959Z,20.86
2018-09-18T08:22:45.930Z,20.87
2018-09-18T08:23:45.962Z,20.87
2018-09-18T08:24:46.075Z,20.88
2018-09-18T08:25:46.722Z,20.86
2018-09-18T08:26:46.046Z,20.88
2018-09-18T08:27:46.372Z,20.88
2018-09-18T08:28:45.903Z,20.87
2018-09-18T08:29:45.906Z,20.87
2018-09-18T08:30:46.288Z,20.86
2018-09-18T08:31:46.302Z,20.88
2018-09-18T08:32:46.400Z,20.87
2018-09-18T08:33:45.827Z,20.85
2018-09-18T08:34:46.045Z,20.86
2018-09-18T08:35:46.067Z,20.86
2018-09-18T08:36:45.914Z,20.87
2018-09-18T08:37:46.131Z,20.88
2018-09-18T08:38:46.142Z,20.86
2018-09-18T08:39:46.589Z,20.89
2018-09-18T08:40:46.208Z,20.88
2018-09-18T08:41:46.563Z,20.88
2018-09-18T08:42:46.146Z,20.87
2018-09-18T08:43:46.045Z,20.85
2018-09-18T08:44:45.946Z,20.88
2018-09-18T08:45:45.882Z,20.91
2018-09-18T08:46:45.852Z,20.91
2018-09-18T08:47:45.913Z,20.9
2018-09-18T08:48:45.944Z,20.93
2018-09-18T08:49:46.192Z,20.94
2018-09-18T08:50:45.863Z,20.96
2018-09-18T08:51:46.779Z,20.95
2018-09-18T08:52:45.882Z,20.98
2018-09-18T08:53:45.825Z,20.95
2018-09-18T08:54:45.909Z,20.96
2018-09-18T08:55:46.027Z,21
2018-09-18T08:56:45.909Z,20.99
2018-09-18T08:57:45.880Z,21.02
2018-09-18T08:58:46.063Z,21.02
2018-09-18T08:59:45.786Z,21.02
2018-09-18T09:00:46.085Z,21.02
2018-09-18T09:01:46.178Z,21.02
2018-09-18T09:02:46.205Z,21.06
2018-09-18T09:03:46.282Z,21.06
2018-09-18T09:04:46.490Z,21.05
2018-09-18T09:05:45.983Z,21.06
2018-09-18T09:06:46.074Z,21.08
2018-09-18T09:07:46.926Z,21.08
2018-09-18T09:08:47.474Z,21.07
2018-09-18T09:09:45.924Z,21.09
2018-09-18T09:10:46.846Z,21.08
2018-09-18T09:11:46.191Z,21.11
2018-09-18T09:12:46.134Z,21.1
2018-09-18T09:13:46.079Z,21.13
2018-09-18T09:14:46.827Z,21.09
2018-09-18T09:15:46.471Z,21.13
2018-09-18T09:16:45.989Z,21.13
2018-09-18T09:17:46.045Z,21.11
2018-09-18T09:18:46.277Z,21.13
2018-09-18T09:19:46.071Z,21.14
2018-09-18T09:20:47.113Z,21.15
2018-09-18T09:21:47.330Z,21.13
2018-09-18T09:22:46.778Z,21.14
2018-09-18T09:23:45.877Z,21.15
2018-09-18T09:24:46.203Z,21.15
2018-09-18T09:25:45.891Z,21.14
2018-09-18T09:26:46.650Z,21.17
2018-09-18T09:27:46.960Z,21.16
2018-09-18T09:28:45.869Z,21.15
2018-09-18T09:29:46.410Z,21.15
2018-09-18T09:30:45.913Z,21.17
2018-09-18T09:31:45.835Z,21.17
2018-09-18T09:32:46.037Z,21.17
2018-09-18T09:33:45.912Z,21.17
2018-09-18T09:34:45.785Z,21.15
2018-09-18T09:35:46.212Z,21.15
2018-09-18T09:36:46.303Z,21.17
2018-09-18T09:37:45.946Z,21.18
2018-09-18T09:38:46.883Z,21.21
2018-09-18T09:39:46.070Z,21.17
2018-09-18T09:40:46.326Z,21.18
2018-09-18T09:41:45.915Z,21.19
2018-09-18T09:42:46.069Z,21.2
2018-09-18T09:43:46.948Z,21.19
2018-09-18T09:44:46.547Z,21.18
2018-09-18T09:45:45.764Z,21.17
2018-09-18T09:46:46.025Z,21.19
2018-09-18T09:47:45.792Z,21.2
2018-09-18T09:48:46.248Z,21.2
2018-09-18T09:49:46.491Z,21.2
2018-09-18T09:50:46.631Z,21.19
2018-09-18T09:51:46.300Z,21.21
2018-09-18T09:52:45.742Z,21.19
2018-09-18T09:53:46.264Z,21.19
2018-09-18T09:54:45.861Z,21.21
2018-09-18T09:55:45.968Z,21.2
2018-09-18T09:56:46.135Z,21.21
2018-09-18T09:57:45.873Z,21.21
2018-09-18T09:58:45.842Z,21.21
2018-09-18T09:59:46.352Z,21.21
2018-09-18T10:00:46.153Z,21.24
2018-09-18T10:01:46.134Z,21.21
2018-09-18T10:02:46.698Z,21.23
2018-09-18T10:03:46.452Z,21.2
2018-09-18T10:04:45.979Z,21.23
2018-09-18T10:05:45.889Z,21.21
2018-09-18T10:06:46.044Z,21.22
2018-09-18T10:07:45.748Z,21.23
2018-09-18T10:08:46.287Z,21.23
2018-09-18T10:09:46.274Z,21.21
2018-09-18T10:10:47.305Z,21.24
2018-09-18T10:11:46.136Z,21.25
2018-09-18T10:12:45.896Z,21.24
2018-09-18T10:13:45.872Z,21.27
2018-09-18T10:14:46.008Z,21.24
2018-09-18T10:15:46.244Z,21.27
2018-09-18T10:16:46.631Z,21.29
2018-09-18T10:17:46.571Z,21.28
2018-09-18T10:18:45.853Z,21.25
2018-09-18T10:19:46.072Z,21.29
2018-09-18T10:20:45.735Z,21.27
2018-09-18T10:21:45.776Z,21.27
2018-09-18T10:22:45.965Z,21.28
2018-09-18T10:23:46.252Z,21.25
2018-09-18T10:24:45.834Z,21.23
2018-09-18T10:25:47.385Z,21.29
2018-09-18T10:26:47.073Z,21.27
2018-09-18T10:27:46.288Z,21.27
2018-09-18T10:28:45.990Z,21.25
2018-09-18T10:29:45.846Z,21.25
2018-09-18T10:30:46.031Z,21.27
2018-09-18T10:31:45.953Z,21.27
2018-09-18T10:32:47.423Z,21.27
2018-09-18T10:33:45.892Z,21.28
2018-09-18T10:34:46.112Z,21.27
2018-09-18T10:35:46.083Z,21.29
2018-09-18T10:36:46.591Z,21.29
2018-09-18T10:37:46.303Z,21.28
2018-09-18T10:38:46.156Z,21.29
2018-09-18T10:39:46.060Z,21.28
2018-09-18T10:40:46.818Z,21.27
2018-09-18T10:41:46.695Z,21.29
2018-09-18T10:42:46.504Z,21.29
2018-09-18T10:43:45.946Z,21.29
2018-09-18T10:44:45.925Z,21.3
2018-09-18T10:45:45.830Z,21.31
2018-09-18T10:46:45.995Z,21.31
2018-09-18T10:47:45.950Z,21.29
2018-09-18T10:48:45.894Z,21.3
2018-09-18T10:49:45.929Z,21.3
2018-09-18T10:50:45.705Z,21.31
2018-09-18T10:51:45.868Z,21.29
2018-09-18T10:52:46.138Z,21.31
2018-09-18T10:53:45.766Z,21.29
2018-09-18T10:54:45.873Z,21.32
2018-09-18T10:55:45.899Z,21.31
2018-09-18T10:56:45.895Z,21.32
2018-09-18T10:57:47.237Z,21.31
2018-09-18T10:58:45.855Z,21.32
2018-09-18T10:59:46.226Z,21.32
2018-09-18T11:00:46.078Z,21.31
2018-09-18T11:01:46.149Z,21.31
2018-09-18T11:02:45.868Z,21.33
2018-09-18T11:03:45.921Z,21.33
2018-09-18T11:04:46.350Z,21.33
2018-09-18T11:05:45.823Z,21.33
2018-09-18T11:06:46.279Z,21.32
2018-09-18T11:07:47.133Z,21.33
2018-09-18T11:08:46.250Z,21.33
2018-09-18T11:09:46.963Z,21.33
2018-09-18T11:10:45.909Z,21.32
2018-09-18T11:11:46.216Z,21.35
2018-09-18T11:12:45.981Z,21.34
2018-09-18T11:13:45.776Z,21.34
2018-09-18T11:14:46.294Z,21.35
2018-09-18T11:15:46.508Z,21.33
2018-09-18T11:16:46.706Z,21.35
2018-09-18T11:17:46.507Z,21.33
2018-09-18T11:18:45.882Z,21.33
2018-09-18T11:19:45.988Z,21.35
2018-09-18T11:20:46.641Z,21.35
2018-09-18T11:21:46.416Z,21.35
2018-09-18T11:22:45.794Z,21.35
2018-09-18T11:23:46.878Z,21.36
2018-09-18T11:24:46.846Z,21.36
2018-09-18T11:25:45.899Z,21.38
2018-09-18T11:26:46.294Z,21.38
2018-09-18T11:27:46.113Z,21.39
2018-09-18T11:28:45.911Z,21.39
2018-09-18T11:29:46.142Z,21.37
2018-09-18T11:30:46.122Z,21.4
2018-09-18T11:31:45.900Z,21.42
2018-09-18T11:32:46.826Z,21.39
2018-09-18T11:33:45.928Z,21.4
2018-09-18T11:34:45.749Z,21.42
2018-09-18T11:35:46.883Z,21.4
2018-09-18T11:36:45.815Z,21.39
2018-09-18T11:37:46.098Z,21.42
2018-09-18T11:38:45.801Z,21.42
2018-09-18T11:39:45.658Z,21.39
2018-09-18T11:40:46.301Z,21.38
2018-09-18T11:41:46.318Z,21.39
2018-09-18T11:42:46.716Z,21.38
2018-09-18T11:43:45.915Z,21.38
2018-09-18T11:44:45.895Z,21.36
2018-09-18T11:45:47.036Z,21.4
2018-09-18T11:46:46.866Z,21.44
2018-09-18T11:47:45.732Z,21.43
2018-09-18T11:48:46.415Z,21.4
2018-09-18T11:49:45.915Z,21.39
2018-09-18T11:50:45.914Z,21.39
2018-09-18T11:51:45.881Z,21.38
2018-09-18T11:52:46.484Z,21.36
2018-09-18T11:53:45.743Z,21.36
2018-09-18T11:54:46.025Z,21.38
2018-09-18T11:55:45.797Z,21.36
2018-09-18T11:56:46.614Z,21.35
2018-09-18T11:57:46.245Z,21.36
2018-09-18T11:58:45.696Z,21.36
2018-09-18T11:59:45.981Z,21.37
2018-09-18T12:00:45.927Z,21.34
2018-09-18T12:01:45.788Z,21.35
2018-09-18T12:02:46.428Z,21.35
2018-09-18T12:03:46.092Z,21.36
2018-09-18T12:04:47.106Z,21.33
2018-09-18T12:05:45.969Z,21.34
2018-09-18T12:06:46.083Z,21.34
2018-09-18T12:07:45.880Z,21.34
2018-09-18T12:08:46.398Z,21.33
2018-09-18T12:09:45.911Z,21.32
2018-09-18T12:10:45.870Z,21.34
2018-09-18T12:11:45.791Z,21.33
2018-09-18T12:12:45.931Z,21.33
2018-09-18T12:13:46.007Z,21.32
2018-09-18T12:14:45.725Z,21.32
2018-09-18T12:15:45.856Z,21.3
2018-09-18T12:16:46.304Z,21.32
2018-09-18T12:17:46.453Z,21.31
2018-09-18T12:18:45.792Z,21.31
2018-09-18T12:19:46.387Z,21.32
2018-09-18T12:20:45.930Z,21.35
2018-09-18T12:21:46.336Z,21.33
2018-09-18T12:22:46.066Z,21.35
2018-09-18T12:23:45.836Z,21.34
2018-09-18T12:24:46.222Z,21.35
2018-09-18T12:25:45.896Z,21.37
2018-09-18T12:26:46.592Z,21.36
2018-09-18T12:27:46.800Z,21.39
2018-09-18T12:28:47.051Z,21.37
2018-09-18T12:29:46.276Z,21.39
2018-09-18T12:30:45.979Z,21.39
2018-09-18T12:31:46.264Z,21.39
2018-09-18T12:32:46.483Z,21.4
2018-09-18T12:33:45.670Z,21.42
2018-09-18T12:34:46.096Z,21.42
2018-09-18T12:35:46.809Z,21.39
2018-09-18T12:36:46.065Z,21.42
2018-09-18T12:37:45.640Z,21.42
2018-09-18T12:38:46.114Z,21.45
2018-09-18T12:39:46.157Z,21.46
2018-09-18T12:40:45.789Z,21.42
2018-09-18T12:41:47.168Z,21.45
2018-09-18T12:42:46.354Z,21.42
2018-09-18T12:43:45.876Z,21.44
2018-09-18T12:44:45.794Z,21.44
2018-09-18T12:45:46.040Z,21.44
2018-09-18T12:46:45.725Z,21.48
2018-09-18T12:47:45.885Z,21.46
2018-09-18T12:48:47.003Z,21.46
2018-09-18T12:49:47.571Z,21.47
2018-09-18T12:50:46.185Z,21.49
2018-09-18T12:51:46.130Z,21.47
2018-09-18T12:52:45.882Z,21.46
2018-09-18T12:53:46.554Z,21.46
2018-09-18T12:54:46.153Z,21.47
2018-09-18T12:55:46.171Z,21.46